Disclaimer

Please do not use the information listed here in-flight or in-navigation, as they are not provided to us by the airports but are provided by volunteers, so they might be outdated.

Search


Regions


Airport information page

Radio informations:
Tower (TWR) - 120.1 MHz
Approach (APP) - 124.6 MHz

Airport informations:
Latitude: 39° 46' 30.00" N
Longitude: 064° 29' 00.00" E
Elevation: 751 feet - 229 meters
Operating hours: 24 hour operations
Operating agency: Civil government, landing fees and diplomatic clearance may be required
Timezone: UTC+5
Fuel: N/A

Runway information:
01/19 - 9843 x 147 feet< - >3000 x 45 meters

Recent METARs:
UTSB 211030Z 10002KT 6000 -SHRA BKN064CB 08/07 Q1012 R01/290055 NOSIG
UTSB 211100Z 06004KT 6000 -SHRA BKN050CB 08/07 Q1011 R01/290055 NOSIG
UTSB 211130Z 05006KT 6000 -SHRA BKN050CB 08/07 Q1011 R01/290055 NOSIG

Airport on the map: